Matias Olimpio, Brazil
Current Conditions -  °F | °C
As of 4:00 PM on Monday 22 Dec 2014 (Local Time) from SBPB Reporting Station
Clear Clear  
Wind Chill: 90°   Ceiling: Unl
Heat Index: 98°   Visibility: 6mi
Dew Point: 73°   Wind: 23mph
Humidity: 59%   Direction: 70°ENE
Pressure: 29.8"   Gusts: NA
Location:  3.72°S, 42.55°W
Report Text: SBPB 221900Z 07020KT CAVOK 32/23 Q1009
Loading
Personal Weather Stations






























Interactive Weather Map New forecast layout! Learn more

10-Day Weather Forecast

Advertisements
Track Severe Weather on mobile